createdAt,value
2023-01-06T00:04:47.241Z,10.52
2023-01-06T00:11:10.201Z,10.49
2023-01-06T00:17:30.301Z,10.49
2023-01-06T00:23:53.200Z,10.48
2023-01-06T00:30:13.177Z,10.5
2023-01-06T00:36:36.329Z,10.51
2023-01-06T00:42:56.201Z,10.51
2023-01-06T00:49:19.194Z,10.51
2023-01-06T00:55:39.299Z,10.48
2023-01-06T01:02:02.358Z,10.47
2023-01-06T01:08:22.166Z,10.43
2023-01-06T01:14:45.325Z,10.43
2023-01-06T01:21:05.185Z,10.41
2023-01-06T01:27:28.237Z,10.41
2023-01-06T01:33:48.274Z,10.42
2023-01-06T01:40:11.161Z,10.44
2023-01-06T01:46:31.261Z,10.43
2023-01-06T01:52:54.296Z,10.44
2023-01-06T01:59:14.195Z,10.45
2023-01-06T02:05:37.212Z,10.48
2023-01-06T02:11:57.310Z,10.51
2023-01-06T02:18:20.199Z,10.51
2023-01-06T02:24:40.160Z,10.5
2023-01-06T02:31:03.298Z,10.5
2023-01-06T02:37:23.186Z,10.49
2023-01-06T02:43:46.151Z,10.48
2023-01-06T02:50:06.345Z,10.43
2023-01-06T02:56:29.183Z,10.4
2023-01-06T03:02:49.183Z,10.37
2023-01-06T03:09:12.299Z,10.35
2023-01-06T03:15:32.181Z,10.37
2023-01-06T03:21:55.159Z,10.38
2023-01-06T03:28:15.293Z,10.4
2023-01-06T03:34:38.186Z,10.42
2023-01-06T03:40:58.204Z,10.38
2023-01-06T03:47:21.386Z,10.32
2023-01-06T03:53:41.188Z,10.29
2023-01-06T04:00:04.172Z,10.3
2023-01-06T04:06:24.313Z,10.31
2023-01-06T04:12:47.153Z,10.32
2023-01-06T04:19:07.184Z,10.35
2023-01-06T04:25:30.323Z,10.38
2023-01-06T04:31:50.251Z,10.39
2023-01-06T04:48:19.193Z,10.36
2023-01-06T04:54:39.190Z,10.34
2023-01-06T05:01:02.326Z,10.31
2023-01-06T05:07:22.281Z,10.26
2023-01-06T05:13:45.164Z,10.25
2023-01-06T05:20:05.190Z,10.26
2023-01-06T05:26:28.286Z,10.27
2023-01-06T05:32:48.220Z,10.28
2023-01-06T05:39:11.212Z,10.29
2023-01-06T05:45:31.310Z,10.31
2023-01-06T05:51:54.237Z,10.34
2023-01-06T05:58:14.156Z,10.31
2023-01-06T06:04:37.274Z,10.26
2023-01-06T06:10:57.179Z,10.24
2023-01-06T06:17:20.152Z,10.21
2023-01-06T06:23:40.313Z,10.23
2023-01-06T06:30:03.160Z,10.25
2023-01-06T06:36:23.204Z,10.28
2023-01-06T06:42:46.313Z,10.32
2023-01-06T06:49:06.167Z,10.38
2023-01-06T06:55:29.221Z,10.41
2023-01-06T07:01:49.452Z,10.44
2023-01-06T07:08:12.216Z,10.46
2023-01-06T07:14:32.205Z,10.45
2023-01-06T07:20:55.479Z,10.46
2023-01-06T07:27:15.172Z,10.47
2023-01-06T07:33:38.211Z,10.49
2023-01-06T07:39:58.202Z,10.51
2023-01-06T07:46:21.316Z,10.55
2023-01-06T07:52:41.158Z,10.59
2023-01-06T07:59:04.345Z,10.64
2023-01-06T08:05:24.192Z,10.68
2023-01-06T08:11:47.188Z,10.72
2023-01-06T08:18:07.393Z,10.75
2023-01-06T08:24:31.763Z,10.77
2023-01-06T08:30:50.245Z,10.82
2023-01-06T08:37:13.323Z,10.9
2023-01-06T08:43:33.151Z,11.01
2023-01-06T08:49:56.184Z,11.13
2023-01-06T08:56:16.319Z,11.2
2023-01-06T09:02:39.206Z,11.24
2023-01-06T09:08:59.178Z,11.25
2023-01-06T09:15:22.310Z,11.24
2023-01-06T09:21:42.196Z,11.23
2023-01-06T09:28:05.157Z,11.21
2023-01-06T09:34:25.290Z,11.21
2023-01-06T09:40:48.174Z,11.23
2023-01-06T09:47:08.223Z,11.29
2023-01-06T09:53:31.360Z,11.35
2023-01-06T09:59:51.181Z,11.46
2023-01-06T10:16:19.212Z,11.86
2023-01-06T10:22:39.189Z,12.03
2023-01-06T10:29:02.161Z,12.14
2023-01-06T10:35:22.302Z,12.18
2023-01-06T10:41:45.198Z,12.23
2023-01-06T10:48:05.177Z,12.3
2023-01-06T10:54:28.294Z,12.33
2023-01-06T11:00:48.208Z,12.38
2023-01-06T11:07:11.237Z,12.41
2023-01-06T11:13:33.558Z,12.43
2023-01-06T11:19:54.198Z,12.37
2023-01-06T11:26:14.258Z,12.2
2023-01-06T11:32:37.318Z,12.08
2023-01-06T11:38:57.194Z,12.09
2023-01-06T11:45:20.221Z,12.13
2023-01-06T11:51:40.329Z,12.24
2023-01-06T11:58:03.188Z,12.34
2023-01-06T12:04:23.177Z,12.43
2023-01-06T12:10:46.324Z,12.62
2023-01-06T12:17:06.461Z,12.82
2023-01-06T12:23:29.405Z,12.78
2023-01-06T12:29:49.512Z,12.7
2023-01-06T12:36:12.223Z,12.68
2023-01-06T12:42:32.237Z,12.66
2023-01-06T12:48:55.303Z,12.62
2023-01-06T12:55:15.177Z,12.54
2023-01-06T13:01:38.337Z,12.62
2023-01-06T13:07:58.327Z,12.66
2023-01-06T13:14:21.177Z,12.68
2023-01-06T13:20:41.173Z,12.71
2023-01-06T13:27:04.350Z,12.7
2023-01-06T13:33:24.199Z,12.54
2023-01-06T13:39:47.315Z,12.41
2023-01-06T13:46:07.326Z,12.34
2023-01-06T13:52:30.202Z,12.27
2023-01-06T13:58:50.372Z,12.21
2023-01-06T14:05:13.305Z,12.19
2023-01-06T14:11:33.471Z,12.21
2023-01-06T14:17:56.191Z,12.25
2023-01-06T14:24:16.332Z,12.26
2023-01-06T14:30:39.193Z,12.28
2023-01-06T14:36:59.177Z,12.29
2023-01-06T14:43:22.289Z,12.31
2023-01-06T14:49:42.183Z,12.32
2023-01-06T14:56:05.218Z,12.35
2023-01-06T15:02:25.450Z,12.38
2023-01-06T15:08:48.201Z,12.41
2023-01-06T15:15:08.228Z,12.43
2023-01-06T15:40:29.699Z,12.38
2023-01-06T15:46:49.183Z,12.34
2023-01-06T15:53:12.163Z,12.32
2023-01-06T15:59:32.294Z,12.32
2023-01-06T16:06:00.313Z,12.3
2023-01-06T16:12:15.199Z,12.27
2023-01-06T16:18:38.278Z,12.24
2023-01-06T16:24:58.192Z,12.2
2023-01-06T16:31:21.207Z,12.16
2023-01-06T16:37:41.280Z,12.12
2023-01-06T16:44:04.189Z,12.08
2023-01-06T16:50:24.205Z,12.02
2023-01-06T16:56:47.383Z,11.99
2023-01-06T17:03:07.185Z,11.96
2023-01-06T17:09:30.200Z,11.93
2023-01-06T17:15:50.358Z,11.89
2023-01-06T17:22:13.158Z,11.85
2023-01-06T17:28:33.155Z,11.8
2023-01-06T17:34:56.313Z,11.76
2023-01-06T17:41:16.175Z,11.73
2023-01-06T17:47:39.419Z,11.69
2023-01-06T17:53:59.493Z,11.67
2023-01-06T18:00:22.206Z,11.66
2023-01-06T18:06:42.148Z,11.65
2023-01-06T18:13:05.317Z,11.65
2023-01-06T18:19:25.185Z,11.64
2023-01-06T18:25:48.165Z,11.64
2023-01-06T18:32:08.310Z,11.6
2023-01-06T18:38:31.390Z,11.56
2023-01-06T18:44:51.163Z,11.52
2023-01-06T18:51:14.324Z,11.5
2023-01-06T18:57:34.168Z,11.5
2023-01-06T19:03:57.290Z,11.49
2023-01-06T19:10:17.291Z,11.5
2023-01-06T19:16:40.167Z,11.49
2023-01-06T19:23:00.209Z,11.5
2023-01-06T19:29:23.276Z,11.48
2023-01-06T19:35:43.473Z,11.48
2023-01-06T19:42:06.219Z,11.46
2023-01-06T19:48:26.273Z,11.44
2023-01-06T19:54:49.206Z,11.43
2023-01-06T20:01:09.327Z,11.42
2023-01-06T20:07:32.312Z,11.39
2023-01-06T20:13:52.331Z,11.37
2023-01-06T20:20:15.195Z,11.35
2023-01-06T20:26:35.306Z,11.33
2023-01-06T20:32:58.160Z,11.32
2023-01-06T20:39:18.210Z,11.35
2023-01-06T20:45:41.492Z,11.4
2023-01-06T21:08:29.805Z,11.52
2023-01-06T21:14:49.168Z,11.55
2023-01-06T21:21:12.219Z,11.56
2023-01-06T21:27:32.278Z,11.58
2023-01-06T21:33:55.270Z,11.6
2023-01-06T21:40:15.193Z,11.6
2023-01-06T21:46:38.320Z,11.6
2023-01-06T21:52:58.183Z,11.6
2023-01-06T21:59:21.168Z,11.6
2023-01-06T22:05:41.456Z,11.61
2023-01-06T22:12:04.202Z,11.61
2023-01-06T22:18:24.196Z,11.58
2023-01-06T22:24:47.391Z,11.54
2023-01-06T22:31:07.241Z,11.49
2023-01-06T22:37:30.149Z,11.45
2023-01-06T22:43:50.281Z,11.42
2023-01-06T22:50:13.175Z,11.42
2023-01-06T22:56:33.196Z,11.43
2023-01-06T23:20:51.319Z,11.31
2023-01-06T23:27:11.182Z,11.3
2023-01-06T23:33:34.154Z,11.29
2023-01-06T23:39:54.307Z,11.25
2023-01-06T23:46:17.219Z,11.23
2023-01-06T23:52:37.215Z,11.25
2023-01-06T23:59:00.284Z,11.27
